sensor_id;sensor_type;location;lat;lon;timestamp;P1;durP1;ratioP1;P2;durP2;ratioP2
55663;SDS011;41540;57.880;12.164;2023-04-25T00:09:54;6.70;;;5.22;;
55663;SDS011;41540;57.880;12.164;2023-04-25T00:19:55;11.13;;;5.90;;
55663;SDS011;41540;57.880;12.164;2023-04-25T00:29:55;6.43;;;5.75;;
55663;SDS011;41540;57.880;12.164;2023-04-25T00:39:57;8.02;;;7.22;;
55663;SDS011;41540;57.880;12.164;2023-04-25T00:49:57;8.13;;;7.32;;
55663;SDS011;41540;57.880;12.164;2023-04-25T00:59:58;9.27;;;8.32;;
55663;SDS011;41540;57.880;12.164;2023-04-25T01:09:58;7.88;;;7.15;;
55663;SDS011;41540;57.880;12.164;2023-04-25T01:19:59;7.82;;;6.93;;
55663;SDS011;41540;57.880;12.164;2023-04-25T01:29:59;8.80;;;7.90;;
55663;SDS011;41540;57.880;12.164;2023-04-25T01:40:00;10.00;;;8.55;;
55663;SDS011;41540;57.880;12.164;2023-04-25T01:50:01;9.77;;;8.80;;
55663;SDS011;41540;57.880;12.164;2023-04-25T02:00:03;10.35;;;8.52;;
55663;SDS011;41540;57.880;12.164;2023-04-25T02:10:03;8.88;;;8.07;;
55663;SDS011;41540;57.880;12.164;2023-04-25T02:20:04;10.57;;;9.45;;
55663;SDS011;41540;57.880;12.164;2023-04-25T02:30:05;11.05;;;9.25;;
55663;SDS011;41540;57.880;12.164;2023-04-25T02:40:06;9.20;;;8.30;;
55663;SDS011;41540;57.880;12.164;2023-04-25T02:50:07;9.63;;;8.83;;
55663;SDS011;41540;57.880;12.164;2023-04-25T03:00:07;8.05;;;7.35;;
55663;SDS011;41540;57.880;12.164;2023-04-25T03:10:08;7.68;;;6.97;;
55663;SDS011;41540;57.880;12.164;2023-04-25T03:20:08;8.55;;;6.68;;
55663;SDS011;41540;57.880;12.164;2023-04-25T03:30:08;6.60;;;6.00;;
55663;SDS011;41540;57.880;12.164;2023-04-25T03:40:09;6.30;;;5.70;;
55663;SDS011;41540;57.880;12.164;2023-04-25T03:50:09;6.47;;;5.88;;
55663;SDS011;41540;57.880;12.164;2023-04-25T04:00:10;5.53;;;5.03;;
55663;SDS011;41540;57.880;12.164;2023-04-25T04:10:10;5.65;;;5.20;;
55663;SDS011;41540;57.880;12.164;2023-04-25T04:20:11;5.18;;;4.78;;
55663;SDS011;41540;57.880;12.164;2023-04-25T04:30:11;7.72;;;6.90;;
55663;SDS011;41540;57.880;12.164;2023-04-25T04:40:12;8.13;;;7.32;;
55663;SDS011;41540;57.880;12.164;2023-04-25T04:50:15;9.32;;;8.43;;
55663;SDS011;41540;57.880;12.164;2023-04-25T05:00:16;12.55;;;11.10;;
55663;SDS011;41540;57.880;12.164;2023-04-25T05:10:17;13.75;;;12.43;;
55663;SDS011;41540;57.880;12.164;2023-04-25T05:20:17;14.60;;;12.35;;
55663;SDS011;41540;57.880;12.164;2023-04-25T05:30:18;15.55;;;13.80;;
55663;SDS011;41540;57.880;12.164;2023-04-25T05:40:19;17.15;;;15.32;;
55663;SDS011;41540;57.880;12.164;2023-04-25T05:50:19;17.65;;;14.48;;
55663;SDS011;41540;57.880;12.164;2023-04-25T06:00:20;15.82;;;13.30;;
55663;SDS011;41540;57.880;12.164;2023-04-25T06:10:22;17.02;;;13.63;;
55663;SDS011;41540;57.880;12.164;2023-04-25T06:20:24;13.85;;;12.43;;
55663;SDS011;41540;57.880;12.164;2023-04-25T06:30:24;9.63;;;8.63;;
55663;SDS011;41540;57.880;12.164;2023-04-25T06:40:25;9.30;;;6.95;;
55663;SDS011;41540;57.880;12.164;2023-04-25T06:50:26;8.25;;;6.95;;
55663;SDS011;41540;57.880;12.164;2023-04-25T07:00:26;7.00;;;6.30;;
55663;SDS011;41540;57.880;12.164;2023-04-25T07:10:26;6.53;;;5.05;;
55663;SDS011;41540;57.880;12.164;2023-04-25T07:20:27;6.45;;;4.95;;
55663;SDS011;41540;57.880;12.164;2023-04-25T07:30:27;5.30;;;3.17;;
55663;SDS011;41540;57.880;12.164;2023-04-25T07:40:28;5.47;;;2.17;;
55663;SDS011;41540;57.880;12.164;2023-04-25T07:50:28;3.50;;;1.60;;
55663;SDS011;41540;57.880;12.164;2023-04-25T08:00:28;4.88;;;2.00;;
55663;SDS011;41540;57.880;12.164;2023-04-25T08:10:28;2.88;;;1.60;;
55663;SDS011;41540;57.880;12.164;2023-04-25T08:20:29;3.60;;;1.95;;
55663;SDS011;41540;57.880;12.164;2023-04-25T08:30:29;6.13;;;1.63;;
55663;SDS011;41540;57.880;12.164;2023-04-25T08:40:29;1.95;;;1.23;;
55663;SDS011;41540;57.880;12.164;2023-04-25T08:50:35;1.55;;;0.98;;
55663;SDS011;41540;57.880;12.164;2023-04-25T09:00:35;2.78;;;1.67;;
55663;SDS011;41540;57.880;12.164;2023-04-25T09:10:36;8.88;;;1.13;;
55663;SDS011;41540;57.880;12.164;2023-04-25T09:20:43;2.17;;;1.70;;
55663;SDS011;41540;57.880;12.164;2023-04-25T09:30:43;2.60;;;1.20;;
55663;SDS011;41540;57.880;12.164;2023-04-25T09:40:46;5.68;;;1.23;;
55663;SDS011;41540;57.880;12.164;2023-04-25T10:01:16;3.60;;;1.35;;
55663;SDS011;41540;57.880;12.164;2023-04-25T10:11:16;2.60;;;1.15;;
55663;SDS011;41540;57.880;12.164;2023-04-25T10:21:17;3.75;;;1.33;;
55663;SDS011;41540;57.880;12.164;2023-04-25T10:31:17;5.45;;;1.50;;
55663;SDS011;41540;57.880;12.164;2023-04-25T10:41:19;4.03;;;1.65;;
55663;SDS011;41540;57.880;12.164;2023-04-25T10:51:24;4.18;;;1.33;;
55663;SDS011;41540;57.880;12.164;2023-04-25T11:01:25;5.93;;;1.83;;
55663;SDS011;41540;57.880;12.164;2023-04-25T11:11:25;5.70;;;1.25;;
55663;SDS011;41540;57.880;12.164;2023-04-25T11:21:26;3.08;;;1.00;;
55663;SDS011;41540;57.880;12.164;2023-04-25T11:31:28;3.42;;;1.67;;
55663;SDS011;41540;57.880;12.164;2023-04-25T11:41:29;1.75;;;1.15;;
55663;SDS011;41540;57.880;12.164;2023-04-25T11:51:30;2.85;;;1.27;;
55663;SDS011;41540;57.880;12.164;2023-04-25T12:01:38;5.18;;;1.58;;
55663;SDS011;41540;57.880;12.164;2023-04-25T12:11:42;3.58;;;1.85;;
55663;SDS011;41540;57.880;12.164;2023-04-25T12:21:43;4.28;;;1.52;;
55663;SDS011;41540;57.880;12.164;2023-04-25T12:31:44;2.17;;;1.45;;
55663;SDS011;41540;57.880;12.164;2023-04-25T12:41:45;5.25;;;1.65;;
55663;SDS011;41540;57.880;12.164;2023-04-25T12:51:46;2.03;;;1.33;;
55663;SDS011;41540;57.880;12.164;2023-04-25T13:01:51;2.20;;;1.13;;
55663;SDS011;41540;57.880;12.164;2023-04-25T13:11:51;4.07;;;1.50;;
55663;SDS011;41540;57.880;12.164;2023-04-25T13:21:51;3.80;;;1.27;;
55663;SDS011;41540;57.880;12.164;2023-04-25T13:31:52;1.48;;;1.33;;
55663;SDS011;41540;57.880;12.164;2023-04-25T13:41:52;3.13;;;1.35;;
55663;SDS011;41540;57.880;12.164;2023-04-25T13:51:52;1.20;;;1.10;;
55663;SDS011;41540;57.880;12.164;2023-04-25T14:01:52;3.17;;;1.50;;
55663;SDS011;41540;57.880;12.164;2023-04-25T14:11:53;2.78;;;1.00;;
55663;SDS011;41540;57.880;12.164;2023-04-25T14:21:53;2.97;;;1.00;;
55663;SDS011;41540;57.880;12.164;2023-04-25T14:31:53;1.10;;;1.00;;
55663;SDS011;41540;57.880;12.164;2023-04-25T14:41:54;2.90;;;1.35;;
55663;SDS011;41540;57.880;12.164;2023-04-25T14:51:54;1.00;;;0.93;;
55663;SDS011;41540;57.880;12.164;2023-04-25T15:01:54;1.33;;;1.23;;
55663;SDS011;41540;57.880;12.164;2023-04-25T15:11:56;1.88;;;1.10;;
55663;SDS011;41540;57.880;12.164;2023-04-25T15:21:56;2.42;;;1.27;;
55663;SDS011;41540;57.880;12.164;2023-04-25T15:32:00;0.93;;;0.90;;
55663;SDS011;41540;57.880;12.164;2023-04-25T15:42:00;0.73;;;0.73;;
55663;SDS011;41540;57.880;12.164;2023-04-25T15:52:02;0.95;;;0.95;;
55663;SDS011;41540;57.880;12.164;2023-04-25T16:02:02;7.65;;;1.42;;
55663;SDS011;41540;57.880;12.164;2023-04-25T16:12:03;8.67;;;1.87;;
55663;SDS011;41540;57.880;12.164;2023-04-25T16:22:03;0.60;;;0.60;;
55663;SDS011;41540;57.880;12.164;2023-04-25T16:32:04;2.08;;;0.70;;
55663;SDS011;41540;57.880;12.164;2023-04-25T16:42:04;1.27;;;1.10;;
55663;SDS011;41540;57.880;12.164;2023-04-25T16:52:04;1.35;;;0.80;;
55663;SDS011;41540;57.880;12.164;2023-04-25T17:02:05;0.63;;;0.63;;
55663;SDS011;41540;57.880;12.164;2023-04-25T17:12:07;0.93;;;0.63;;
55663;SDS011;41540;57.880;12.164;2023-04-25T17:22:07;0.60;;;0.60;;
55663;SDS011;41540;57.880;12.164;2023-04-25T17:32:08;0.82;;;0.82;;
55663;SDS011;41540;57.880;12.164;2023-04-25T17:42:09;2.10;;;0.70;;
55663;SDS011;41540;57.880;12.164;2023-04-25T17:52:09;0.70;;;0.70;;
55663;SDS011;41540;57.880;12.164;2023-04-25T18:02:10;1.35;;;0.80;;
55663;SDS011;41540;57.880;12.164;2023-04-25T18:12:10;1.73;;;0.88;;
55663;SDS011;41540;57.880;12.164;2023-04-25T18:22:10;2.50;;;1.00;;
55663;SDS011;41540;57.880;12.164;2023-04-25T18:32:11;1.88;;;0.98;;
55663;SDS011;41540;57.880;12.164;2023-04-25T18:42:12;1.15;;;0.60;;
55663;SDS011;41540;57.880;12.164;2023-04-25T18:52:12;0.82;;;0.77;;
55663;SDS011;41540;57.880;12.164;2023-04-25T19:02:14;1.17;;;0.80;;
55663;SDS011;41540;57.880;12.164;2023-04-25T19:12:15;0.90;;;0.85;;
55663;SDS011;41540;57.880;12.164;2023-04-25T19:22:15;1.05;;;0.98;;
55663;SDS011;41540;57.880;12.164;2023-04-25T19:32:16;2.63;;;0.93;;
55663;SDS011;41540;57.880;12.164;2023-04-25T19:42:16;1.65;;;0.95;;
55663;SDS011;41540;57.880;12.164;2023-04-25T19:52:18;1.75;;;1.25;;
55663;SDS011;41540;57.880;12.164;2023-04-25T20:02:19;2.33;;;0.90;;
55663;SDS011;41540;57.880;12.164;2023-04-25T20:12:20;0.98;;;0.93;;
55663;SDS011;41540;57.880;12.164;2023-04-25T20:22:20;2.58;;;0.93;;
55663;SDS011;41540;57.880;12.164;2023-04-25T20:32:20;0.80;;;0.80;;
55663;SDS011;41540;57.880;12.164;2023-04-25T20:42:21;0.85;;;0.85;;
55663;SDS011;41540;57.880;12.164;2023-04-25T20:52:21;1.00;;;1.00;;
55663;SDS011;41540;57.880;12.164;2023-04-25T21:02:22;3.67;;;1.25;;
55663;SDS011;41540;57.880;12.164;2023-04-25T21:12:23;2.20;;;1.17;;
55663;SDS011;41540;57.880;12.164;2023-04-25T21:22:23;1.52;;;1.25;;
55663;SDS011;41540;57.880;12.164;2023-04-25T21:32:23;0.93;;;0.88;;
55663;SDS011;41540;57.880;12.164;2023-04-25T21:42:24;3.05;;;0.80;;
55663;SDS011;41540;57.880;12.164;2023-04-25T21:52:24;0.95;;;0.95;;
55663;SDS011;41540;57.880;12.164;2023-04-25T22:02:25;0.97;;;0.97;;
55663;SDS011;41540;57.880;12.164;2023-04-25T22:12:26;1.50;;;1.40;;
55663;SDS011;41540;57.880;12.164;2023-04-25T22:22:27;2.97;;;1.00;;
55663;SDS011;41540;57.880;12.164;2023-04-25T22:32:27;4.28;;;1.20;;
55663;SDS011;41540;57.880;12.164;2023-04-25T22:42:27;1.60;;;1.50;;
55663;SDS011;41540;57.880;12.164;2023-04-25T22:52:28;1.40;;;1.15;;
55663;SDS011;41540;57.880;12.164;2023-04-25T23:02:28;1.60;;;1.13;;
55663;SDS011;41540;57.880;12.164;2023-04-25T23:12:28;1.40;;;1.30;;
55663;SDS011;41540;57.880;12.164;2023-04-25T23:22:28;1.40;;;1.30;;
55663;SDS011;41540;57.880;12.164;2023-04-25T23:32:29;2.17;;;1.17;;
55663;SDS011;41540;57.880;12.164;2023-04-25T23:42:29;2.13;;;1.50;;
55663;SDS011;41540;57.880;12.164;2023-04-25T23:52:30;2.58;;;1.63;;
